AirNav   Everest Fuels
 
 485 users online  

3WI4 Flying 'O' Airport
Wausau, Wisconsin, USA

GOING TO WAUSAU?


FAA INFORMATION EFFECTIVE 22 APRIL 2021

Location

FAA Identifier: 3WI4
Lat/Long: 44-55-24.8900N 089-24-08.4220W
44-55.414833N 089-24.140367W
44.9235806,-89.4023394
(estimated)
Elevation: 1320 ft. / 402 m (estimated)
Variation: 00W (1985)
From city: 10 miles E of WAUSAU, WI
Time zone: UTC -5 (UTC -6 during Standard Time)
Zip code: 54471

Airport Operations

Airport use: Private use. Permission required prior to landing
Activation date: 07/1975
Control tower: no
ARTCC: MINNEAPOLIS CENTER
FSS: GREEN BAY FLIGHT SERVICE STATION
Attendance: DAWN-DUSK
Wind indicator: yes
Segmented circle: no

Airport Communications

WX ASOS at AUW (10 nm W): 125.925 (715-843-7215)
WX AWOS-3 at CWA (14 nm SW): 127.45 (715-693-1116)
WX AWOS-3 at AIG (19 nm NE): 119.075 (715-627-2869)

Nearby radio navigation aids

VOR radial/distance  VOR name  Freq  Var
AUWr058/9.1WAUSAU VOR/DME111.6002E

 
NDB name  Hdg/Dist  Freq  Var  ID
WISCONSIN RAPIDS030/38.421501WISW .. ... .--

Airport Services

Runway Information

Runway 9/27

Dimensions: 2400 x 75 ft. / 732 x 23 m
Surface: turf
RUNWAY 9  RUNWAY 27
Traffic pattern: leftleft
Obstructions: 20 ft. pline, marked, 350 ft. from runwaynone

Airport Ownership and Management from official FAA records

Ownership: Privately-owned
Owner: TERRANCE W. OESTREICH
R3465 CTY HWY Q
RINGLE, WI 54471
Phone 715-446-3751
Manager: TERRANCE W. OESTREICH
R3465 CTY HWY Q
RINGLE, WI 54471
Phone 715-446-3751

Airport Operational Statistics

Aircraft based on the field: 2
Single engine airplanes: 2
    

Additional Remarks

CLSD DURG WINTER MONTHS FROM DEC 1ST - MAY 1ST.
FOR CD CTC MINNEAPOLIS ARTCC AT 651-463-5588.

Instrument Procedures

There are no published instrument procedures at 3WI4.

Some nearby airports with instrument procedures:

KAUW - Wausau Downtown Airport (10 nm W)
KCWA - Central Wisconsin Airport (14 nm SW)
KAIG - Langlade County Airport (19 nm NE)
KRRL - Merrill Municipal Airport (21 nm NW)
KSTE - Stevens Point Municipal Airport (23 nm S)
 
Loc | Ops | Rwys | IFR | FBO | Links
Com | Nav | Svcs | Stats | Notes
Area around 3WI4 (Flying 'O' Airport)
 
Road maps at: MapQuest Bing Google
 
Aerial photo
No photo
 
Sectional chart

 
Airport distance calculator
Flying to Flying 'O' Airport? Find the distance to fly.

From to 3WI4

Sunrise and sunset
Times for 11-May-2021
 Local
(UTC-5)
 Zulu
(UTC)
Morning civil twilight05:0110:01
Sunrise05:3410:34
Sunset20:1401:14
Evening civil twilight20:4701:47

Current date and time
Zulu (UTC)  11-May-2021 06:13:31
Local (UTC-5)  11-May-2021 01:13:31
 
METAR
KAUW 
9nm W 
110554Z AUTO 32003KT 10SM OVC065 04/M04 A3027 RMK AO2 SLP261 T00391044 10100 20033 401220028 53014
KAIG 
13nm NE 
110555Z AUTO 34004KT 10SM CLR 00/M04 A3027 RMK AO2 T10051045 10066 21011
KCWA 
15nm SW 
110555Z AUTO 34004KT 10SM BKN060 01/M04 A3029 RMK AO2
TAF
KAUW 
9nm W 
110520Z 1106/1206 34003KT P6SM SKC FM111400 33008G15KT P6SM SCT045 FM111700 32007G15KT P6SM BKN060 FM112300 32006KT P6SM SCT070
KCWA 
15nm SW 
110520Z 1106/1206 34003KT P6SM SKC FM111400 33008G15KT P6SM SCT045 FM111700 32007G15KT P6SM BKN060 FM112300 32006KT P6SM SCT070
NOTAMs
Click for the latest NOTAMs
NOTAMs are issued by the DoD/FAA and will open in a separate window not controlled by AirNav.

 

 
 

Would you like to see your business listed on this page?

 If your business provides an interesting product or service to pilots, flight crews, aircraft, or users of the Flying 'O' Airport, you should consider listing it here.  To start the listing process, click on the button below
 
Add a business
 

Other Pages about Flying 'O' Airport

Update a link
 
Copyright © AirNav, LLC. All rights reserved. Privacy Policy  Contact